Terminal Aerodrome Forecast
Issued by NWS Charleston, WV

Home | Current Version | Previous Version | Text Only | Print | Product List | Glossary On
Versions: 1 2 3 4 5 6 7 8 9 10 11 12 13 14 15 16 17 18 19 20 21 22 23 24 25
000
FTUS41 KRLX 070813 AAA
TAFBKW
TAF AMD
KBKW 070813Z 0708/0806 20005KT P6SM SKC
      TEMPO 0708/0711 2SM BR SCT001
     FM071300 25007KT P6SM SCT025
     FM071500 25009KT P6SM SCT030
     FM072300 24007KT P6SM VCTS SCT040CB BKN100=

USA.gov is the U.S. government's official web portal to all federal, state and local government web resources and services.